createdAt,value
2023-05-11T00:02:00.723Z,7.16
2023-05-11T00:07:02.993Z,7.15
2023-05-11T00:12:05.877Z,7.07
2023-05-11T00:17:07.959Z,6.98
2023-05-11T00:22:10.256Z,6.89
2023-05-11T00:27:12.429Z,6.83
2023-05-11T00:32:14.614Z,6.71
2023-05-11T00:37:17.031Z,6.63
2023-05-11T00:42:19.284Z,6.54
2023-05-11T00:47:21.473Z,6.44
2023-05-11T00:52:24.474Z,6.36
2023-05-11T00:57:27.075Z,6.28
2023-05-11T01:02:30.639Z,6.22
2023-05-11T01:08:01.549Z,6.12
2023-05-11T01:13:51.357Z,6.07
2023-05-11T01:18:59.534Z,5.99
2023-05-11T01:24:26.746Z,5.95
2023-05-11T01:29:50.432Z,5.88
2023-05-11T01:35:01.321Z,5.83
2023-05-11T01:40:10.371Z,5.79
2023-05-11T01:45:15.315Z,5.77
2023-05-11T01:50:19.361Z,5.75
2023-05-11T01:55:23.265Z,5.72
2023-05-11T02:00:25.768Z,5.68
2023-05-11T02:05:30.030Z,5.63
2023-05-11T02:10:32.886Z,5.61
2023-05-11T02:15:39.943Z,5.56
2023-05-11T02:20:44.122Z,5.54
2023-05-11T02:25:46.713Z,5.51
2023-05-11T02:30:53.934Z,5.46
2023-05-11T02:35:57.799Z,5.42
2023-05-11T02:41:07.251Z,5.41
2023-05-11T02:46:16.179Z,5.43
2023-05-11T02:51:24.259Z,5.42
2023-05-11T02:56:26.850Z,5.42
2023-05-11T03:01:30.629Z,5.45
2023-05-11T03:06:33.674Z,5.51
2023-05-11T03:11:37.090Z,5.53
2023-05-11T03:16:40.156Z,5.57
2023-05-11T03:21:42.900Z,5.64
2023-05-11T03:26:46.204Z,5.74
2023-05-11T03:31:51.088Z,5.85
2023-05-11T03:36:54.672Z,5.97
2023-05-11T03:41:58.597Z,6.14
2023-05-11T03:47:03.446Z,6.34
2023-05-11T03:52:07.073Z,6.55
2023-05-11T03:57:10.574Z,6.79
2023-05-11T04:02:12.897Z,7.01
2023-05-11T04:07:14.941Z,7.23
2023-05-11T04:12:18.763Z,7.50
2023-05-11T04:17:20.791Z,7.74
2023-05-11T04:22:22.926Z,7.88
2023-05-11T04:27:25.332Z,8.10
2023-05-11T04:32:28.779Z,8.32
2023-05-11T04:37:31.333Z,8.52
2023-05-11T04:42:33.355Z,8.75
2023-05-11T04:47:35.505Z,8.97
2023-05-11T04:52:37.673Z,9.19
2023-05-11T04:57:39.757Z,9.38
2023-05-11T05:02:41.876Z,9.62
2023-05-11T05:07:44.330Z,9.82
2023-05-11T05:12:47.253Z,10.03
2023-05-11T05:17:49.454Z,10.26
2023-05-11T05:22:51.707Z,10.49
2023-05-11T05:27:53.742Z,10.70
2023-05-11T05:32:56.065Z,10.95
2023-05-11T05:37:58.258Z,11.18
2023-05-11T05:43:00.962Z,11.41
2023-05-11T05:48:05.653Z,11.65
2023-05-11T05:53:07.989Z,11.95
2023-05-11T05:58:10.172Z,12.20
2023-05-11T06:03:12.468Z,12.45
2023-05-11T06:08:14.744Z,12.68
2023-05-11T06:13:16.942Z,12.92
2023-05-11T06:18:19.378Z,13.15
2023-05-11T06:23:21.704Z,13.36
2023-05-11T06:28:24.191Z,13.61
2023-05-11T06:33:26.493Z,13.85
2023-05-11T06:38:28.868Z,14.10
2023-05-11T06:43:31.160Z,14.38
2023-05-11T06:48:33.341Z,14.61
2023-05-11T06:53:35.527Z,14.78
2023-05-11T06:58:37.711Z,14.94
2023-05-11T07:03:39.993Z,15.12
2023-05-11T07:08:42.080Z,15.28
2023-05-11T07:13:44.985Z,15.48
2023-05-11T07:18:47.238Z,15.67
2023-05-11T07:23:49.564Z,15.80
2023-05-11T07:28:51.842Z,15.92
2023-05-11T07:33:54.023Z,16.02
2023-05-11T07:38:57.434Z,16.11
2023-05-11T07:44:03.817Z,16.23
2023-05-11T07:49:15.842Z,16.33
2023-05-11T07:54:22.929Z,16.45
2023-05-11T07:59:25.322Z,16.57
2023-05-11T08:04:27.947Z,16.71
2023-05-11T08:09:30.304Z,16.80
2023-05-11T08:14:32.793Z,16.88
2023-05-11T08:19:34.981Z,16.99
2023-05-11T08:24:37.269Z,17.16
2023-05-11T08:29:39.349Z,17.27
2023-05-11T08:34:41.515Z,17.35
2023-05-11T08:39:47.720Z,17.43
2023-05-11T08:44:51.843Z,17.50
2023-05-11T08:49:54.126Z,17.63
2023-05-11T08:54:56.317Z,17.76
2023-05-11T09:00:01.593Z,17.86
2023-05-11T09:05:04.370Z,17.96
2023-05-11T09:10:07.963Z,18.11
2023-05-11T09:15:10.886Z,18.13
2023-05-11T09:20:12.966Z,18.20
2023-05-11T09:25:18.882Z,18.26
2023-05-11T09:30:23.721Z,18.41
2023-05-11T09:35:33.017Z,18.55
2023-05-11T09:40:43.164Z,18.59
2023-05-11T09:45:50.312Z,18.62
2023-05-11T09:50:59.561Z,18.76
2023-05-11T09:56:01.654Z,18.86
2023-05-11T10:01:03.748Z,18.91
2023-05-11T10:06:06.424Z,18.98
2023-05-11T10:11:08.911Z,19.10
2023-05-11T10:16:15.038Z,19.14
2023-05-11T10:21:17.897Z,19.15
2023-05-11T10:26:20.488Z,19.20
2023-05-11T10:31:24.294Z,19.24
2023-05-11T10:36:27.822Z,19.34
2023-05-11T10:42:01.098Z,19.47
2023-05-11T10:47:05.980Z,19.58
2023-05-11T10:52:17.992Z,19.71
2023-05-11T10:57:22.941Z,19.81
2023-05-11T11:02:31.216Z,19.90
2023-05-11T11:07:58.298Z,19.89
2023-05-11T11:13:11.479Z,20.01
2023-05-11T11:18:27.342Z,20.12
2023-05-11T11:23:49.852Z,20.19
2023-05-11T11:29:00.239Z,20.37
2023-05-11T11:34:27.405Z,20.47
2023-05-11T11:39:46.171Z,20.50
2023-05-11T11:44:48.354Z,20.63
2023-05-11T11:49:53.017Z,20.75
2023-05-11T11:54:56.711Z,20.87
2023-05-11T12:00:06.749Z,20.93
2023-05-11T12:05:13.583Z,21.01
2023-05-11T12:10:18.296Z,21.06
2023-05-11T12:15:33.606Z,21.19
2023-05-11T12:20:35.796Z,21.24
2023-05-11T12:25:37.874Z,21.28
2023-05-11T12:30:40.057Z,21.42
2023-05-11T12:35:43.677Z,21.59
2023-05-11T12:40:50.490Z,21.58
2023-05-11T12:45:52.815Z,21.60
2023-05-11T12:50:54.945Z,21.67
2023-05-11T12:56:00.504Z,21.87
2023-05-11T13:01:02.805Z,22.06
2023-05-11T13:06:08.557Z,22.23
2023-05-11T13:11:28.141Z,22.16
2023-05-11T13:16:34.170Z,22.19
2023-05-11T13:21:36.314Z,22.19
2023-05-11T13:26:38.403Z,22.27
2023-05-11T13:31:51.926Z,22.45
2023-05-11T13:36:54.225Z,22.62
2023-05-11T13:41:56.407Z,22.77
2023-05-11T13:47:01.457Z,23.15
2023-05-11T13:52:04.508Z,24.40
2023-05-11T13:57:07.071Z,28.15
2023-05-11T14:02:09.690Z,32.20
2023-05-11T14:07:12.149Z,36.21
2023-05-11T14:12:14.642Z,39.40
2023-05-11T14:17:25.964Z,42.03
2023-05-11T14:22:29.059Z,45.07
2023-05-11T14:27:31.135Z,48.67
2023-05-11T14:32:33.340Z,51.82
2023-05-11T14:37:38.371Z,54.77
2023-05-11T14:42:40.453Z,56.72
2023-05-11T14:47:43.269Z,57.14
2023-05-11T14:52:46.347Z,57.77
2023-05-11T14:57:48.548Z,59.14
2023-05-11T15:02:51.560Z,60.13
2023-05-11T15:07:53.822Z,60.46
2023-05-11T15:12:56.111Z,60.81
2023-05-11T15:17:58.237Z,60.86
2023-05-11T15:23:00.485Z,60.91
2023-05-11T15:28:03.492Z,59.77
2023-05-11T15:33:05.667Z,59.57
2023-05-11T15:38:07.881Z,60.44
2023-05-11T15:43:10.140Z,60.36
2023-05-11T15:48:12.320Z,59.33
2023-05-11T15:53:14.711Z,58.41
2023-05-11T15:58:17.918Z,58.64
2023-05-11T16:03:20.639Z,58.71
2023-05-11T16:08:22.913Z,57.93
2023-05-11T16:13:24.973Z,57.49
2023-05-11T16:18:29.181Z,56.89
2023-05-11T16:23:31.596Z,56.26
2023-05-11T16:28:33.779Z,55.73
2023-05-11T16:33:37.349Z,54.61
2023-05-11T16:38:39.397Z,53.28
2023-05-11T16:43:42.488Z,52.27
2023-05-11T16:48:44.988Z,51.89
2023-05-11T16:53:47.476Z,51.19
2023-05-11T16:58:49.654Z,50.48
2023-05-11T17:03:51.901Z,49.85
2023-05-11T17:08:54.665Z,49.05
2023-05-11T17:13:56.833Z,48.81
2023-05-11T17:18:59.243Z,47.77
2023-05-11T17:24:01.605Z,46.46
2023-05-11T17:29:03.793Z,45.59
2023-05-11T17:34:08.013Z,44.50
2023-05-11T17:39:11.456Z,43.40
2023-05-11T17:44:13.618Z,41.43
2023-05-11T17:49:15.803Z,39.71
2023-05-11T17:54:17.990Z,37.98
2023-05-11T17:59:21.099Z,35.87
2023-05-11T18:04:23.207Z,33.50
2023-05-11T18:09:25.289Z,31.66
2023-05-11T18:14:27.450Z,29.83
2023-05-11T18:19:30.117Z,27.87
2023-05-11T18:24:32.220Z,26.00
2023-05-11T18:29:34.305Z,24.16
2023-05-11T18:34:40.687Z,22.58
2023-05-11T18:39:42.691Z,21.23
2023-05-11T18:44:44.644Z,20.11
2023-05-11T18:49:48.443Z,19.22
2023-05-11T18:54:51.376Z,18.44
2023-05-11T18:59:53.962Z,17.74
2023-05-11T19:04:56.657Z,17.12
2023-05-11T19:09:58.953Z,16.50
2023-05-11T19:15:01.033Z,15.92
2023-05-11T19:20:03.513Z,15.44
2023-05-11T19:25:06.927Z,14.96
2023-05-11T19:30:09.949Z,14.54
2023-05-11T19:35:13.553Z,14.17
2023-05-11T19:45:21.407Z,13.52
2023-05-11T19:50:24.634Z,13.23
2023-05-11T19:55:27.206Z,12.94
2023-05-11T20:00:29.708Z,12.69
2023-05-11T20:05:31.976Z,12.47
2023-05-11T20:10:35.083Z,12.25
2023-05-11T20:15:37.577Z,12.08
2023-05-11T20:20:39.586Z,11.87
2023-05-11T20:25:43.729Z,11.73
2023-05-11T20:30:45.664Z,11.57
2023-05-11T20:35:47.950Z,11.38
2023-05-11T20:40:50.034Z,11.22
2023-05-11T20:45:52.369Z,11.07
2023-05-11T20:50:55.179Z,10.92
2023-05-11T20:55:57.404Z,10.79
2023-05-11T21:00:59.561Z,10.66
2023-05-11T21:06:01.813Z,10.54
2023-05-11T21:11:04.328Z,10.42
2023-05-11T21:16:07.753Z,10.30
2023-05-11T21:21:09.863Z,10.17
2023-05-11T21:26:11.946Z,10.05
2023-05-11T21:31:14.150Z,9.98
2023-05-11T21:36:16.215Z,9.92
2023-05-11T21:41:18.191Z,9.84
2023-05-11T21:46:20.541Z,9.74
2023-05-11T21:51:22.657Z,9.68
2023-05-11T21:56:25.076Z,9.60
2023-05-11T22:01:27.075Z,9.50
2023-05-11T22:06:29.316Z,9.41
2023-05-11T22:11:33.041Z,9.33
2023-05-11T22:16:35.138Z,9.22
2023-05-11T22:21:37.202Z,9.10
2023-05-11T22:26:39.697Z,8.99
2023-05-11T22:31:43.990Z,8.89
2023-05-11T22:36:47.744Z,8.77
2023-05-11T22:41:49.832Z,8.68
2023-05-11T22:46:52.322Z,8.59
2023-05-11T22:51:58.186Z,8.51
2023-05-11T22:57:01.295Z,8.42
2023-05-11T23:02:04.135Z,8.41
2023-05-11T23:07:07.408Z,8.37
2023-05-11T23:12:09.600Z,8.34
2023-05-11T23:17:12.221Z,8.29
2023-05-11T23:22:14.780Z,8.21
2023-05-11T23:27:16.964Z,8.15
2023-05-11T23:32:19.248Z,8.10
2023-05-11T23:37:21.946Z,8.02
2023-05-11T23:42:24.029Z,7.98
2023-05-11T23:47:26.590Z,7.93
2023-05-11T23:52:29.419Z,7.87
2023-05-11T23:57:32.034Z,7.80
